NCAR-RAP Real-Time Weather Data

Output produced by METARs form (25 June 2022  04:03 UTC)
found at http://weather.rap.ucar.edu/surface/
 
KBKW 250351Z AUTO 00000KT 10SM CLR 18/15 A3015 RMK AO2 SLP176 T01830150
KBKW 250251Z AUTO 08003KT 10SM CLR 19/16 A3015 RMK AO2 SLP178 T01940156 51011
KBKW 250151Z AUTO 07003KT 10SM CLR 21/16 A3014 RMK AO2 SLP174 T02060161
KBKW 250051Z AUTO 01005KT 10SM CLR 23/15 A3013 RMK AO2 SLP170 T02330150
KBKW 242351Z AUTO 02005KT 10SM CLR 25/15 A3012 RMK AO2 SLP165 T02500150 10289 20244 53003
KBKW 242251Z AUTO 36009KT 10SM CLR 26/15 A3011 RMK AO2 SLP166 T02610150
KBKW 242151Z AUTO 02007KT 10SM CLR 27/15 A3011 RMK AO2 SLP166 T02720150
KBKW 242051Z AUTO 01008KT 10SM SCT060 27/14 A3011 RMK AO2 SLP165 T02720144 56005
KBKW 241951Z AUTO 35007KT 10SM SCT060 27/14 A3011 RMK AO2 SLP163 T02720139
KBKW 241851Z AUTO VRB05KT 10SM CLR 28/14 A3011 RMK AO2 SLP162 T02830139
KBKW 241751Z AUTO VRB05KT 10SM FEW050 26/13 A3013 RMK AO2 SLP171 T02560128 10272 20189 58003
KBKW 241651Z AUTO VRB03KT 10SM FEW045 27/14 A3013 RMK AO2 SLP172 T02670144